Main page
METAR-TAF:

METAR-TAF

Airports :

Doncaster Sheffield Airport

Doncaster, England

latitude: 53-29N, longitude: 001-00W, elevation: 17 m

Current weather observation

The report was made 39 minutes ago, at 05:20 UTC
Wind 2 kt from the North
Temperature 13°C
Humidity 100%
Pressure 1019 hPa
Visibility: 4500 m
mist

METAR: EGCN 250520Z 01002KT 4500 BR NSC 13/13 Q1019

Time: 06:59 (05:59 UTC)

Forecast

The report was made 1 hour and 1 minutes ago, at 04:58 UTC
Forecast valid from 25 at 06 UTC to 26 at 06 UTC
Wind 4 kt from variable directions
Visibility: 3000 m
Broken clouds at a height of 400 ft
mist
Probability 30% :
Temporary
from 25 at 06 UTC to 25 at 09 UTC
Visibility: 0100 m
fog
Becoming
from 25 at 07 UTC to 25 at 10 UTC
Visibility 10 km or more
Few clouds at a height of 4000 ft
Probability 30% :
Temporary
from 26 at 00 UTC to 26 at 06 UTC
Visibility: 8000 m

TAF: EGCN 250458Z 2506/2606 VRB04KT 3000 BR BKN004 PROB30 TEMPO 2506/2509 0100 FG BECMG 2507/2510 9999 NSW FEW040 PROB30 TEMPO 2600/2606 8000

Weather observations and forecasts of more than 4000 airports (METAR and TAF reports).

The available stations are represented by yellow and red dots on the map.

Hover mouse over dot to see the name of the station.

Then click to see weather observations and forecasts.

To change the map : click on the green buttons with a black cross to zoom in, on the green button with a dash to zoom out, or on the green arrows for adjacent maps.


METAR-TAF: